sensor_id;sensor_type;location;lat;lon;timestamp;temperature;humidity
8093;DHT22;4089;52.420;13.334;2024-02-21T00:00:28;8.40;99.90
8093;DHT22;4089;52.420;13.334;2024-02-21T00:02:54;8.40;99.90
8093;DHT22;4089;52.420;13.334;2024-02-21T00:05:24;8.40;99.90
8093;DHT22;4089;52.420;13.334;2024-02-21T00:07:51;8.50;99.90
8093;DHT22;4089;52.420;13.334;2024-02-21T00:10:18;8.50;99.90
8093;DHT22;4089;52.420;13.334;2024-02-21T00:12:45;8.50;99.90
8093;DHT22;4089;52.420;13.334;2024-02-21T00:15:12;8.50;99.90
8093;DHT22;4089;52.420;13.334;2024-02-21T00:17:38;8.50;99.90
8093;DHT22;4089;52.420;13.334;2024-02-21T00:20:07;8.50;99.90
8093;DHT22;4089;52.420;13.334;2024-02-21T00:22:34;8.50;99.90
8093;DHT22;4089;52.420;13.334;2024-02-21T00:25:01;8.60;99.90
8093;DHT22;4089;52.420;13.334;2024-02-21T00:27:28;8.50;99.90
8093;DHT22;4089;52.420;13.334;2024-02-21T00:29:55;8.50;99.90
8093;DHT22;4089;52.420;13.334;2024-02-21T00:32:21;8.60;99.90
8093;DHT22;4089;52.420;13.334;2024-02-21T00:34:48;8.50;99.90
8093;DHT22;4089;52.420;13.334;2024-02-21T00:37:15;8.50;99.90
8093;DHT22;4089;52.420;13.334;2024-02-21T00:39:42;8.50;99.90
8093;DHT22;4089;52.420;13.334;2024-02-21T00:42:09;8.50;99.90
8093;DHT22;4089;52.420;13.334;2024-02-21T00:44:36;8.60;99.90
8093;DHT22;4089;52.420;13.334;2024-02-21T00:47:03;8.50;99.90
8093;DHT22;4089;52.420;13.334;2024-02-21T00:49:29;8.50;99.90
8093;DHT22;4089;52.420;13.334;2024-02-21T00:51:56;8.60;99.90
8093;DHT22;4089;52.420;13.334;2024-02-21T00:54:23;8.60;99.90
8093;DHT22;4089;52.420;13.334;2024-02-21T00:56:50;8.60;99.90
8093;DHT22;4089;52.420;13.334;2024-02-21T00:59:17;8.60;99.90
8093;DHT22;4089;52.420;13.334;2024-02-21T01:01:44;8.50;99.90
8093;DHT22;4089;52.420;13.334;2024-02-21T01:04:11;8.60;99.90
8093;DHT22;4089;52.420;13.334;2024-02-21T01:06:38;8.60;99.90
8093;DHT22;4089;52.420;13.334;2024-02-21T01:09:05;8.50;99.90
8093;DHT22;4089;52.420;13.334;2024-02-21T01:11:32;8.50;99.90
8093;DHT22;4089;52.420;13.334;2024-02-21T01:13:59;8.50;99.90
8093;DHT22;4089;52.420;13.334;2024-02-21T01:16:26;8.40;99.90
8093;DHT22;4089;52.420;13.334;2024-02-21T01:18:53;8.50;99.90
8093;DHT22;4089;52.420;13.334;2024-02-21T01:21:19;8.50;99.90
8093;DHT22;4089;52.420;13.334;2024-02-21T01:23:46;8.50;99.90
8093;DHT22;4089;52.420;13.334;2024-02-21T01:26:13;8.50;99.90
8093;DHT22;4089;52.420;13.334;2024-02-21T01:28:42;8.50;99.90
8093;DHT22;4089;52.420;13.334;2024-02-21T01:31:09;8.40;99.90
8093;DHT22;4089;52.420;13.334;2024-02-21T01:33:35;8.50;99.90
8093;DHT22;4089;52.420;13.334;2024-02-21T01:36:03;8.40;99.90
8093;DHT22;4089;52.420;13.334;2024-02-21T01:38:30;8.50;99.90
8093;DHT22;4089;52.420;13.334;2024-02-21T01:40:59;8.40;99.90
8093;DHT22;4089;52.420;13.334;2024-02-21T01:43:26;8.40;99.90
8093;DHT22;4089;52.420;13.334;2024-02-21T01:45:55;8.40;99.90
8093;DHT22;4089;52.420;13.334;2024-02-21T01:48:22;8.50;99.90
8093;DHT22;4089;52.420;13.334;2024-02-21T01:50:51;8.40;99.90
8093;DHT22;4089;52.420;13.334;2024-02-21T01:53:23;8.40;99.90
8093;DHT22;4089;52.420;13.334;2024-02-21T01:55:52;8.40;99.90
8093;DHT22;4089;52.420;13.334;2024-02-21T01:58:20;8.40;99.90
8093;DHT22;4089;52.420;13.334;2024-02-21T02:00:48;8.40;99.90
8093;DHT22;4089;52.420;13.334;2024-02-21T02:03:15;8.40;99.90
8093;DHT22;4089;52.420;13.334;2024-02-21T02:05:49;8.50;99.90
8093;DHT22;4089;52.420;13.334;2024-02-21T02:08:17;8.40;99.90
8093;DHT22;4089;52.420;13.334;2024-02-21T02:10:45;8.40;99.90
8093;DHT22;4089;52.420;13.334;2024-02-21T02:13:12;8.40;99.90
8093;DHT22;4089;52.420;13.334;2024-02-21T02:18:13;8.40;99.90
8093;DHT22;4089;52.420;13.334;2024-02-21T02:20:40;8.30;99.90
8093;DHT22;4089;52.420;13.334;2024-02-21T02:23:10;8.20;99.90
8093;DHT22;4089;52.420;13.334;2024-02-21T02:25:38;8.20;99.90
8093;DHT22;4089;52.420;13.334;2024-02-21T02:28:08;8.20;99.90
8093;DHT22;4089;52.420;13.334;2024-02-21T02:30:35;8.20;99.90
8093;DHT22;4089;52.420;13.334;2024-02-21T02:33:06;8.20;99.90
8093;DHT22;4089;52.420;13.334;2024-02-21T02:35:33;8.20;99.90
8093;DHT22;4089;52.420;13.334;2024-02-21T02:38:03;8.10;99.90
8093;DHT22;4089;52.420;13.334;2024-02-21T02:40:30;8.20;99.90
8093;DHT22;4089;52.420;13.334;2024-02-21T02:42:57;8.20;99.90
8093;DHT22;4089;52.420;13.334;2024-02-21T02:45:24;8.20;99.90
8093;DHT22;4089;52.420;13.334;2024-02-21T02:47:53;8.20;99.90
8093;DHT22;4089;52.420;13.334;2024-02-21T02:50:27;8.10;99.90
8093;DHT22;4089;52.420;13.334;2024-02-21T02:52:54;8.10;99.90
8093;DHT22;4089;52.420;13.334;2024-02-21T02:55:22;8.10;99.90
8093;DHT22;4089;52.420;13.334;2024-02-21T02:57:49;8.10;99.90
8093;DHT22;4089;52.420;13.334;2024-02-21T03:00:16;8.10;99.90
8093;DHT22;4089;52.420;13.334;2024-02-21T03:02:44;8.00;99.90
8093;DHT22;4089;52.420;13.334;2024-02-21T03:05:23;8.00;99.90
8093;DHT22;4089;52.420;13.334;2024-02-21T03:07:50;8.00;99.90
8093;DHT22;4089;52.420;13.334;2024-02-21T03:10:17;8.00;99.90
8093;DHT22;4089;52.420;13.334;2024-02-21T03:12:45;8.00;99.90
8093;DHT22;4089;52.420;13.334;2024-02-21T03:15:13;8.00;99.90
8093;DHT22;4089;52.420;13.334;2024-02-21T03:17:41;8.00;99.90
8093;DHT22;4089;52.420;13.334;2024-02-21T03:20:08;8.00;99.90
8093;DHT22;4089;52.420;13.334;2024-02-21T03:22:37;7.90;99.90
8093;DHT22;4089;52.420;13.334;2024-02-21T03:25:05;7.90;99.90
8093;DHT22;4089;52.420;13.334;2024-02-21T03:27:33;7.90;99.90
8093;DHT22;4089;52.420;13.334;2024-02-21T03:30:00;7.90;99.90
8093;DHT22;4089;52.420;13.334;2024-02-21T03:32:26;7.90;99.90
8093;DHT22;4089;52.420;13.334;2024-02-21T03:34:55;7.80;99.90
8093;DHT22;4089;52.420;13.334;2024-02-21T03:37:22;7.80;99.90
8093;DHT22;4089;52.420;13.334;2024-02-21T03:39:49;7.80;99.90
8093;DHT22;4089;52.420;13.334;2024-02-21T03:42:16;7.80;99.90
8093;DHT22;4089;52.420;13.334;2024-02-21T03:44:42;7.80;99.90
8093;DHT22;4089;52.420;13.334;2024-02-21T03:47:09;7.80;99.90
8093;DHT22;4089;52.420;13.334;2024-02-21T03:49:38;7.80;99.90
8093;DHT22;4089;52.420;13.334;2024-02-21T03:52:05;7.70;99.90
8093;DHT22;4089;52.420;13.334;2024-02-21T03:54:32;7.70;99.90
8093;DHT22;4089;52.420;13.334;2024-02-21T03:56:59;7.10;99.90
8093;DHT22;4089;52.420;13.334;2024-02-21T03:59:25;7.70;99.90
8093;DHT22;4089;52.420;13.334;2024-02-21T04:01:52;7.60;99.90
8093;DHT22;4089;52.420;13.334;2024-02-21T04:04:20;7.60;99.90
8093;DHT22;4089;52.420;13.334;2024-02-21T04:06:48;7.60;99.90
8093;DHT22;4089;52.420;13.334;2024-02-21T04:09:15;7.60;99.90
8093;DHT22;4089;52.420;13.334;2024-02-21T04:11:42;7.60;99.90
8093;DHT22;4089;52.420;13.334;2024-02-21T04:14:09;7.60;99.90
8093;DHT22;4089;52.420;13.334;2024-02-21T04:16:38;7.60;99.90
8093;DHT22;4089;52.420;13.334;2024-02-21T04:19:05;7.60;99.90
8093;DHT22;4089;52.420;13.334;2024-02-21T04:21:33;7.60;99.90
8093;DHT22;4089;52.420;13.334;2024-02-21T04:24:00;7.60;99.90
8093;DHT22;4089;52.420;13.334;2024-02-21T04:26:28;7.60;99.90
8093;DHT22;4089;52.420;13.334;2024-02-21T04:28:55;7.60;99.90
8093;DHT22;4089;52.420;13.334;2024-02-21T04:31:22;7.60;99.90
8093;DHT22;4089;52.420;13.334;2024-02-21T04:33:49;7.60;99.90
8093;DHT22;4089;52.420;13.334;2024-02-21T04:36:16;7.60;99.90
8093;DHT22;4089;52.420;13.334;2024-02-21T04:38:43;7.60;99.90
8093;DHT22;4089;52.420;13.334;2024-02-21T04:41:09;7.70;99.90
8093;DHT22;4089;52.420;13.334;2024-02-21T04:43:36;7.70;99.90
8093;DHT22;4089;52.420;13.334;2024-02-21T04:46:04;7.70;99.90
8093;DHT22;4089;52.420;13.334;2024-02-21T04:48:31;7.70;99.90
8093;DHT22;4089;52.420;13.334;2024-02-21T04:50:58;7.70;99.90
8093;DHT22;4089;52.420;13.334;2024-02-21T04:53:25;7.60;99.90
8093;DHT22;4089;52.420;13.334;2024-02-21T04:55:51;7.60;99.90
8093;DHT22;4089;52.420;13.334;2024-02-21T04:58:18;7.60;99.90
8093;DHT22;4089;52.420;13.334;2024-02-21T05:00:45;7.60;99.90
8093;DHT22;4089;52.420;13.334;2024-02-21T05:03:12;7.70;99.90
8093;DHT22;4089;52.420;13.334;2024-02-21T05:05:39;7.70;99.90
8093;DHT22;4089;52.420;13.334;2024-02-21T05:08:06;7.70;99.90
8093;DHT22;4089;52.420;13.334;2024-02-21T05:10:33;7.70;99.90
8093;DHT22;4089;52.420;13.334;2024-02-21T05:13:00;7.70;99.90
8093;DHT22;4089;52.420;13.334;2024-02-21T05:15:27;7.70;99.90
8093;DHT22;4089;52.420;13.334;2024-02-21T05:17:54;7.70;99.90
8093;DHT22;4089;52.420;13.334;2024-02-21T05:20:21;7.70;99.90
8093;DHT22;4089;52.420;13.334;2024-02-21T05:22:48;7.70;99.90
8093;DHT22;4089;52.420;13.334;2024-02-21T05:25:15;7.70;99.90
8093;DHT22;4089;52.420;13.334;2024-02-21T05:27:42;7.70;99.90
8093;DHT22;4089;52.420;13.334;2024-02-21T05:30:09;7.80;99.90
8093;DHT22;4089;52.420;13.334;2024-02-21T05:32:36;7.70;99.90
8093;DHT22;4089;52.420;13.334;2024-02-21T05:35:03;7.80;99.90
8093;DHT22;4089;52.420;13.334;2024-02-21T05:37:30;7.70;99.90
8093;DHT22;4089;52.420;13.334;2024-02-21T05:39:57;7.80;99.90
8093;DHT22;4089;52.420;13.334;2024-02-21T05:42:24;7.80;99.90
8093;DHT22;4089;52.420;13.334;2024-02-21T05:44:51;7.70;99.90
8093;DHT22;4089;52.420;13.334;2024-02-21T05:47:18;7.70;99.90
8093;DHT22;4089;52.420;13.334;2024-02-21T05:49:47;7.80;99.90
8093;DHT22;4089;52.420;13.334;2024-02-21T05:52:14;7.80;99.90
8093;DHT22;4089;52.420;13.334;2024-02-21T05:54:41;7.80;99.90
8093;DHT22;4089;52.420;13.334;2024-02-21T05:57:08;7.80;99.90
8093;DHT22;4089;52.420;13.334;2024-02-21T05:59:35;7.80;99.90
8093;DHT22;4089;52.420;13.334;2024-02-21T06:02:03;7.80;99.90
8093;DHT22;4089;52.420;13.334;2024-02-21T06:04:31;7.70;99.90
8093;DHT22;4089;52.420;13.334;2024-02-21T06:06:58;7.70;99.90
8093;DHT22;4089;52.420;13.334;2024-02-21T06:09:25;7.80;99.90
8093;DHT22;4089;52.420;13.334;2024-02-21T06:11:52;7.80;99.90
8093;DHT22;4089;52.420;13.334;2024-02-21T06:14:19;7.80;99.90
8093;DHT22;4089;52.420;13.334;2024-02-21T06:16:46;7.80;99.90
8093;DHT22;4089;52.420;13.334;2024-02-21T06:19:13;7.80;99.90
8093;DHT22;4089;52.420;13.334;2024-02-21T06:21:40;7.80;99.90
8093;DHT22;4089;52.420;13.334;2024-02-21T06:24:07;7.80;99.90
8093;DHT22;4089;52.420;13.334;2024-02-21T06:26:34;7.80;99.90
8093;DHT22;4089;52.420;13.334;2024-02-21T06:29:01;7.80;99.90
8093;DHT22;4089;52.420;13.334;2024-02-21T06:31:29;7.80;99.90
8093;DHT22;4089;52.420;13.334;2024-02-21T06:33:56;7.80;99.90
8093;DHT22;4089;52.420;13.334;2024-02-21T06:36:23;7.70;99.90
8093;DHT22;4089;52.420;13.334;2024-02-21T06:38:50;7.80;99.90
8093;DHT22;4089;52.420;13.334;2024-02-21T06:41:18;7.80;99.90
8093;DHT22;4089;52.420;13.334;2024-02-21T06:43:46;7.80;99.90
8093;DHT22;4089;52.420;13.334;2024-02-21T06:46:27;7.80;99.90
8093;DHT22;4089;52.420;13.334;2024-02-21T06:48:56;7.80;99.90
8093;DHT22;4089;52.420;13.334;2024-02-21T06:51:24;7.80;99.90
8093;DHT22;4089;52.420;13.334;2024-02-21T06:53:52;7.80;99.90
8093;DHT22;4089;52.420;13.334;2024-02-21T06:56:19;7.90;99.90
8093;DHT22;4089;52.420;13.334;2024-02-21T06:58:47;7.90;99.90
8093;DHT22;4089;52.420;13.334;2024-02-21T07:01:13;7.90;99.90
8093;DHT22;4089;52.420;13.334;2024-02-21T07:03:41;7.90;99.90
8093;DHT22;4089;52.420;13.334;2024-02-21T07:06:07;7.90;99.90
8093;DHT22;4089;52.420;13.334;2024-02-21T07:08:34;7.90;99.90
8093;DHT22;4089;52.420;13.334;2024-02-21T07:11:01;7.80;99.90
8093;DHT22;4089;52.420;13.334;2024-02-21T07:13:28;7.90;99.90
8093;DHT22;4089;52.420;13.334;2024-02-21T07:15:55;7.90;99.90
8093;DHT22;4089;52.420;13.334;2024-02-21T07:18:22;7.90;99.90
8093;DHT22;4089;52.420;13.334;2024-02-21T07:20:49;7.90;99.90
8093;DHT22;4089;52.420;13.334;2024-02-21T07:23:15;8.00;99.90
8093;DHT22;4089;52.420;13.334;2024-02-21T07:25:42;7.90;99.90
8093;DHT22;4089;52.420;13.334;2024-02-21T07:28:09;8.00;99.90
8093;DHT22;4089;52.420;13.334;2024-02-21T07:30:36;8.00;99.90
8093;DHT22;4089;52.420;13.334;2024-02-21T07:33:03;8.00;99.90
8093;DHT22;4089;52.420;13.334;2024-02-21T07:35:30;7.90;99.90
8093;DHT22;4089;52.420;13.334;2024-02-21T07:37:57;8.00;99.90
8093;DHT22;4089;52.420;13.334;2024-02-21T07:40:24;8.10;99.90
8093;DHT22;4089;52.420;13.334;2024-02-21T07:42:51;8.20;99.90
8093;DHT22;4089;52.420;13.334;2024-02-21T07:45:18;8.10;99.90
8093;DHT22;4089;52.420;13.334;2024-02-21T07:47:45;8.20;99.90
8093;DHT22;4089;52.420;13.334;2024-02-21T07:50:12;8.20;99.90
8093;DHT22;4089;52.420;13.334;2024-02-21T07:52:39;8.20;99.90
8093;DHT22;4089;52.420;13.334;2024-02-21T07:55:08;8.20;99.90
8093;DHT22;4089;52.420;13.334;2024-02-21T07:57:37;8.20;99.90
8093;DHT22;4089;52.420;13.334;2024-02-21T08:00:04;8.30;99.90
8093;DHT22;4089;52.420;13.334;2024-02-21T08:02:31;8.30;99.90
8093;DHT22;4089;52.420;13.334;2024-02-21T08:04:58;8.30;99.90
8093;DHT22;4089;52.420;13.334;2024-02-21T08:07:25;8.30;99.90
8093;DHT22;4089;52.420;13.334;2024-02-21T08:09:52;8.30;99.90
8093;DHT22;4089;52.420;13.334;2024-02-21T08:12:19;8.40;99.90
8093;DHT22;4089;52.420;13.334;2024-02-21T08:14:45;8.40;99.90
8093;DHT22;4089;52.420;13.334;2024-02-21T08:17:12;8.40;99.90
8093;DHT22;4089;52.420;13.334;2024-02-21T08:19:39;8.40;99.90
8093;DHT22;4089;52.420;13.334;2024-02-21T08:22:06;8.40;99.90
8093;DHT22;4089;52.420;13.334;2024-02-21T08:24:33;8.50;99.90
8093;DHT22;4089;52.420;13.334;2024-02-21T08:27:00;8.50;99.90
8093;DHT22;4089;52.420;13.334;2024-02-21T08:29:27;8.50;99.90
8093;DHT22;4089;52.420;13.334;2024-02-21T08:31:53;8.50;99.90
8093;DHT22;4089;52.420;13.334;2024-02-21T08:34:20;8.60;99.90
8093;DHT22;4089;52.420;13.334;2024-02-21T08:36:47;8.70;99.90
8093;DHT22;4089;52.420;13.334;2024-02-21T08:39:14;8.70;99.90
8093;DHT22;4089;52.420;13.334;2024-02-21T08:41:44;8.80;99.90
8093;DHT22;4089;52.420;13.334;2024-02-21T08:44:23;8.80;99.90
8093;DHT22;4089;52.420;13.334;2024-02-21T08:46:53;8.80;99.90
8093;DHT22;4089;52.420;13.334;2024-02-21T08:49:20;8.90;99.90
8093;DHT22;4089;52.420;13.334;2024-02-21T08:51:47;8.90;99.90
8093;DHT22;4089;52.420;13.334;2024-02-21T08:54:15;9.00;99.90
8093;DHT22;4089;52.420;13.334;2024-02-21T08:56:43;9.10;99.90
8093;DHT22;4089;52.420;13.334;2024-02-21T08:59:10;9.20;99.90
8093;DHT22;4089;52.420;13.334;2024-02-21T09:01:37;9.20;99.90
8093;DHT22;4089;52.420;13.334;2024-02-21T09:04:05;9.30;99.90
8093;DHT22;4089;52.420;13.334;2024-02-21T09:06:32;9.40;99.90
8093;DHT22;4089;52.420;13.334;2024-02-21T09:09:00;9.40;99.90
8093;DHT22;4089;52.420;13.334;2024-02-21T09:11:27;9.40;99.90
8093;DHT22;4089;52.420;13.334;2024-02-21T09:13:55;9.50;99.90
8093;DHT22;4089;52.420;13.334;2024-02-21T09:16:22;9.50;99.90
8093;DHT22;4089;52.420;13.334;2024-02-21T09:18:50;9.50;99.90
8093;DHT22;4089;52.420;13.334;2024-02-21T09:21:17;9.60;99.90
8093;DHT22;4089;52.420;13.334;2024-02-21T09:23:45;9.60;99.90
8093;DHT22;4089;52.420;13.334;2024-02-21T09:26:12;9.70;99.90
8093;DHT22;4089;52.420;13.334;2024-02-21T09:28:43;9.70;99.90
8093;DHT22;4089;52.420;13.334;2024-02-21T09:31:13;9.70;99.90
8093;DHT22;4089;52.420;13.334;2024-02-21T09:33:40;9.80;99.90
8093;DHT22;4089;52.420;13.334;2024-02-21T09:36:08;9.90;99.90
8093;DHT22;4089;52.420;13.334;2024-02-21T09:38:35;9.90;99.90
8093;DHT22;4089;52.420;13.334;2024-02-21T09:43:40;10.00;99.90
8093;DHT22;4089;52.420;13.334;2024-02-21T09:46:08;10.00;99.90
8093;DHT22;4089;52.420;13.334;2024-02-21T09:49:07;10.40;99.90
8093;DHT22;4089;52.420;13.334;2024-02-21T09:51:36;10.20;99.90
8093;DHT22;4089;52.420;13.334;2024-02-21T09:54:05;10.40;99.90
8093;DHT22;4089;52.420;13.334;2024-02-21T09:56:44;10.30;99.90
8093;DHT22;4089;52.420;13.334;2024-02-21T09:59:11;10.20;99.90
8093;DHT22;4089;52.420;13.334;2024-02-21T10:01:38;10.30;99.90
8093;DHT22;4089;52.420;13.334;2024-02-21T10:04:05;10.40;99.90
8093;DHT22;4089;52.420;13.334;2024-02-21T10:06:33;10.50;99.90
8093;DHT22;4089;52.420;13.334;2024-02-21T10:09:00;10.60;99.90
8093;DHT22;4089;52.420;13.334;2024-02-21T10:11:27;10.50;99.90
8093;DHT22;4089;52.420;13.334;2024-02-21T10:14:07;10.60;99.90
8093;DHT22;4089;52.420;13.334;2024-02-21T10:16:34;10.50;99.90
8093;DHT22;4089;52.420;13.334;2024-02-21T10:19:01;10.50;99.90
8093;DHT22;4089;52.420;13.334;2024-02-21T10:21:30;10.40;99.90
8093;DHT22;4089;52.420;13.334;2024-02-21T10:23:57;10.60;99.90
8093;DHT22;4089;52.420;13.334;2024-02-21T10:26:24;10.60;99.90
8093;DHT22;4089;52.420;13.334;2024-02-21T10:28:51;10.60;99.90
8093;DHT22;4089;52.420;13.334;2024-02-21T10:31:26;10.70;99.90
8093;DHT22;4089;52.420;13.334;2024-02-21T10:33:57;10.70;99.90
8093;DHT22;4089;52.420;13.334;2024-02-21T10:36:25;10.60;99.90
8093;DHT22;4089;52.420;13.334;2024-02-21T10:38:53;10.60;99.90
8093;DHT22;4089;52.420;13.334;2024-02-21T10:41:22;10.60;99.90
8093;DHT22;4089;52.420;13.334;2024-02-21T10:43:51;10.60;99.90
8093;DHT22;4089;52.420;13.334;2024-02-21T10:46:23;10.40;99.90
8093;DHT22;4089;52.420;13.334;2024-02-21T10:49:16;10.30;99.90
8093;DHT22;4089;52.420;13.334;2024-02-21T10:51:48;10.40;99.90
8093;DHT22;4089;52.420;13.334;2024-02-21T10:54:23;10.30;99.90
8093;DHT22;4089;52.420;13.334;2024-02-21T10:56:55;10.40;99.90
8093;DHT22;4089;52.420;13.334;2024-02-21T10:59:23;10.40;99.90
8093;DHT22;4089;52.420;13.334;2024-02-21T11:01:53;10.50;99.90
8093;DHT22;4089;52.420;13.334;2024-02-21T11:04:25;10.70;99.90
8093;DHT22;4089;52.420;13.334;2024-02-21T11:06:53;10.70;99.90
8093;DHT22;4089;52.420;13.334;2024-02-21T11:09:32;10.70;99.90
8093;DHT22;4089;52.420;13.334;2024-02-21T11:12:03;10.40;99.90
8093;DHT22;4089;52.420;13.334;2024-02-21T11:14:31;10.40;99.90
8093;DHT22;4089;52.420;13.334;2024-02-21T11:17:18;10.50;99.90
8093;DHT22;4089;52.420;13.334;2024-02-21T11:19:46;10.50;99.90
8093;DHT22;4089;52.420;13.334;2024-02-21T11:22:19;10.60;99.90
8093;DHT22;4089;52.420;13.334;2024-02-21T11:24:49;10.70;99.90
8093;DHT22;4089;52.420;13.334;2024-02-21T11:27:19;10.90;99.90
8093;DHT22;4089;52.420;13.334;2024-02-21T11:29:49;10.90;99.90
8093;DHT22;4089;52.420;13.334;2024-02-21T11:32:19;10.90;99.90
8093;DHT22;4089;52.420;13.334;2024-02-21T11:34:56;11.10;99.90
8093;DHT22;4089;52.420;13.334;2024-02-21T11:37:28;11.10;99.90
8093;DHT22;4089;52.420;13.334;2024-02-21T11:39:56;11.20;99.90
8093;DHT22;4089;52.420;13.334;2024-02-21T11:42:28;11.30;99.90
8093;DHT22;4089;52.420;13.334;2024-02-21T11:45:00;11.40;99.90
8093;DHT22;4089;52.420;13.334;2024-02-21T11:47:29;11.30;99.90
8093;DHT22;4089;52.420;13.334;2024-02-21T11:49:56;11.30;99.90
8093;DHT22;4089;52.420;13.334;2024-02-21T11:52:24;11.30;99.90
8093;DHT22;4089;52.420;13.334;2024-02-21T11:54:53;11.80;99.90
8093;DHT22;4089;52.420;13.334;2024-02-21T11:57:21;11.80;99.90
8093;DHT22;4089;52.420;13.334;2024-02-21T11:59:48;11.90;99.90
8093;DHT22;4089;52.420;13.334;2024-02-21T12:02:19;11.80;99.90
8093;DHT22;4089;52.420;13.334;2024-02-21T12:04:46;11.90;99.90
8093;DHT22;4089;52.420;13.334;2024-02-21T12:07:14;11.90;99.90
8093;DHT22;4089;52.420;13.334;2024-02-21T12:09:41;12.00;99.90
8093;DHT22;4089;52.420;13.334;2024-02-21T12:12:09;12.00;99.90
8093;DHT22;4089;52.420;13.334;2024-02-21T12:14:35;11.90;99.90
8093;DHT22;4089;52.420;13.334;2024-02-21T12:17:03;11.90;99.90
8093;DHT22;4089;52.420;13.334;2024-02-21T12:19:34;12.10;99.90
8093;DHT22;4089;52.420;13.334;2024-02-21T12:22:01;12.00;99.90
8093;DHT22;4089;52.420;13.334;2024-02-21T12:24:33;12.00;99.90
8093;DHT22;4089;52.420;13.334;2024-02-21T12:27:00;12.00;99.90
8093;DHT22;4089;52.420;13.334;2024-02-21T12:29:30;12.00;99.90
8093;DHT22;4089;52.420;13.334;2024-02-21T12:31:56;12.00;99.90
8093;DHT22;4089;52.420;13.334;2024-02-21T12:34:24;12.10;99.90
8093;DHT22;4089;52.420;13.334;2024-02-21T12:37:10;11.90;99.90
8093;DHT22;4089;52.420;13.334;2024-02-21T12:39:39;11.90;99.90
8093;DHT22;4089;52.420;13.334;2024-02-21T12:42:06;11.90;99.90
8093;DHT22;4089;52.420;13.334;2024-02-21T12:44:33;12.00;99.90
8093;DHT22;4089;52.420;13.334;2024-02-21T12:47:00;12.10;99.90
8093;DHT22;4089;52.420;13.334;2024-02-21T12:49:27;12.10;99.90
8093;DHT22;4089;52.420;13.334;2024-02-21T12:51:56;12.00;99.90
8093;DHT22;4089;52.420;13.334;2024-02-21T12:54:23;11.90;99.90
8093;DHT22;4089;52.420;13.334;2024-02-21T12:56:50;12.00;99.90
8093;DHT22;4089;52.420;13.334;2024-02-21T12:59:17;12.10;99.90
8093;DHT22;4089;52.420;13.334;2024-02-21T13:01:44;12.20;99.90
8093;DHT22;4089;52.420;13.334;2024-02-21T13:04:11;12.20;99.90
8093;DHT22;4089;52.420;13.334;2024-02-21T13:06:40;12.10;99.90
8093;DHT22;4089;52.420;13.334;2024-02-21T13:09:07;12.00;99.90
8093;DHT22;4089;52.420;13.334;2024-02-21T13:11:37;11.90;99.90
8093;DHT22;4089;52.420;13.334;2024-02-21T13:14:04;12.00;99.90
8093;DHT22;4089;52.420;13.334;2024-02-21T13:16:31;12.00;99.90
8093;DHT22;4089;52.420;13.334;2024-02-21T13:18:58;12.10;99.90
8093;DHT22;4089;52.420;13.334;2024-02-21T13:21:25;12.20;99.90
8093;DHT22;4089;52.420;13.334;2024-02-21T13:23:52;12.10;99.90
8093;DHT22;4089;52.420;13.334;2024-02-21T13:26:19;12.30;99.90
8093;DHT22;4089;52.420;13.334;2024-02-21T13:28:46;12.40;99.90
8093;DHT22;4089;52.420;13.334;2024-02-21T13:31:15;12.40;99.90
8093;DHT22;4089;52.420;13.334;2024-02-21T13:33:43;12.40;99.90
8093;DHT22;4089;52.420;13.334;2024-02-21T13:36:12;12.30;99.90
8093;DHT22;4089;52.420;13.334;2024-02-21T13:38:39;12.10;99.90
8093;DHT22;4089;52.420;13.334;2024-02-21T13:41:06;12.20;99.90
8093;DHT22;4089;52.420;13.334;2024-02-21T13:43:34;12.20;99.90
8093;DHT22;4089;52.420;13.334;2024-02-21T13:46:01;12.10;99.90
8093;DHT22;4089;52.420;13.334;2024-02-21T13:48:36;12.30;99.90
8093;DHT22;4089;52.420;13.334;2024-02-21T13:51:03;12.30;99.90
8093;DHT22;4089;52.420;13.334;2024-02-21T13:53:30;12.20;99.90
8093;DHT22;4089;52.420;13.334;2024-02-21T13:55:57;12.10;99.90
8093;DHT22;4089;52.420;13.334;2024-02-21T13:58:24;12.10;99.90
8093;DHT22;4089;52.420;13.334;2024-02-21T14:00:53;12.10;99.90
8093;DHT22;4089;52.420;13.334;2024-02-21T14:03:20;12.00;99.90
8093;DHT22;4089;52.420;13.334;2024-02-21T14:05:47;12.10;99.90
8093;DHT22;4089;52.420;13.334;2024-02-21T14:08:17;12.20;99.90
8093;DHT22;4089;52.420;13.334;2024-02-21T14:10:44;12.20;99.90
8093;DHT22;4089;52.420;13.334;2024-02-21T14:13:12;12.20;99.90
8093;DHT22;4089;52.420;13.334;2024-02-21T14:15:41;12.10;99.90
8093;DHT22;4089;52.420;13.334;2024-02-21T14:18:10;12.20;99.90
8093;DHT22;4089;52.420;13.334;2024-02-21T14:20:37;12.20;99.90
8093;DHT22;4089;52.420;13.334;2024-02-21T14:23:05;12.20;99.90
8093;DHT22;4089;52.420;13.334;2024-02-21T14:25:32;12.30;99.90
8093;DHT22;4089;52.420;13.334;2024-02-21T14:28:00;12.40;99.90
8093;DHT22;4089;52.420;13.334;2024-02-21T14:30:29;12.30;99.90
8093;DHT22;4089;52.420;13.334;2024-02-21T14:32:56;12.20;99.90
8093;DHT22;4089;52.420;13.334;2024-02-21T14:35:23;12.20;99.90
8093;DHT22;4089;52.420;13.334;2024-02-21T14:37:50;12.20;99.90
8093;DHT22;4089;52.420;13.334;2024-02-21T14:40:19;12.20;99.90
8093;DHT22;4089;52.420;13.334;2024-02-21T14:42:47;12.10;99.90
8093;DHT22;4089;52.420;13.334;2024-02-21T14:45:14;12.10;99.90
8093;DHT22;4089;52.420;13.334;2024-02-21T14:47:41;12.10;99.90
8093;DHT22;4089;52.420;13.334;2024-02-21T14:50:09;12.10;99.90
8093;DHT22;4089;52.420;13.334;2024-02-21T14:52:36;12.10;99.90
8093;DHT22;4089;52.420;13.334;2024-02-21T14:55:04;12.10;99.90
8093;DHT22;4089;52.420;13.334;2024-02-21T14:57:32;12.00;99.90
8093;DHT22;4089;52.420;13.334;2024-02-21T14:59:58;11.90;99.90
8093;DHT22;4089;52.420;13.334;2024-02-21T15:02:27;11.90;99.90
8093;DHT22;4089;52.420;13.334;2024-02-21T15:04:55;11.90;99.90
8093;DHT22;4089;52.420;13.334;2024-02-21T15:07:22;11.90;99.90
8093;DHT22;4089;52.420;13.334;2024-02-21T15:09:52;11.80;99.90
8093;DHT22;4089;52.420;13.334;2024-02-21T15:12:19;11.90;99.90
8093;DHT22;4089;52.420;13.334;2024-02-21T15:14:46;11.80;99.90
8093;DHT22;4089;52.420;13.334;2024-02-21T15:17:13;11.90;99.90
8093;DHT22;4089;52.420;13.334;2024-02-21T15:19:40;11.80;99.90
8093;DHT22;4089;52.420;13.334;2024-02-21T15:22:11;11.80;99.90
8093;DHT22;4089;52.420;13.334;2024-02-21T15:24:39;11.70;99.90
8093;DHT22;4089;52.420;13.334;2024-02-21T15:27:06;11.60;99.90
8093;DHT22;4089;52.420;13.334;2024-02-21T15:29:35;11.50;99.90
8093;DHT22;4089;52.420;13.334;2024-02-21T15:32:05;11.50;99.90
8093;DHT22;4089;52.420;13.334;2024-02-21T15:34:32;11.50;99.90
8093;DHT22;4089;52.420;13.334;2024-02-21T15:36:59;11.50;99.90
8093;DHT22;4089;52.420;13.334;2024-02-21T15:39:27;11.50;99.90
8093;DHT22;4089;52.420;13.334;2024-02-21T15:41:55;11.40;99.90
8093;DHT22;4089;52.420;13.334;2024-02-21T15:44:23;11.40;99.90
8093;DHT22;4089;52.420;13.334;2024-02-21T15:46:50;11.30;99.90
8093;DHT22;4089;52.420;13.334;2024-02-21T15:49:20;11.20;99.90
8093;DHT22;4089;52.420;13.334;2024-02-21T15:51:47;11.20;99.90
8093;DHT22;4089;52.420;13.334;2024-02-21T15:54:15;11.00;99.90
8093;DHT22;4089;52.420;13.334;2024-02-21T15:56:50;11.00;99.90
8093;DHT22;4089;52.420;13.334;2024-02-21T15:59:17;11.00;99.90
8093;DHT22;4089;52.420;13.334;2024-02-21T16:01:44;10.80;99.90
8093;DHT22;4089;52.420;13.334;2024-02-21T16:04:11;10.80;99.90